Nearby METAR Reports

 

KCPC - Whiteville, North Carolina, USA
Distance from station: NNE 17mi, 28km
Updated: 08/19/2017 6:45am
Clear
Clear
 Wind from calm
Wind: Calm
Temperature: 79°F , 26°C
Dew Point: 77°F , 25°C
Humidity: 94%
Barometer: 29.92 inHg , 1013.2 hPa
Clouds: Clear
Visibility: 10 miles , 16 km
2017/08/19 10:45 KCPC 191045Z AUTO 00000KT 10SM CLR 26/25 A2992 RMK AO2 T02570250
KCRE - North Myrtle Bea, South Carolina, USA
Distance from station: SSE 19mi, 31km
Updated: 08/19/2017 6:53am
Clear
Clear
 Wind from WSW
Wind: WSW 8 mph , 13 km/h
Temperature: 81°F , 27°C
Heat Index: 87°F , 31°C
Dew Point: 75°F , 24°C
Humidity: 84%
Barometer: 29.93 inHg , 1013.5 hPa
Clouds: Clear
Visibility: 10 miles , 16 km
2017/08/19 10:53 KCRE 191053Z 24007KT 10SM CLR 27/24 A2993 RMK AO1 SLP135 T02720244
 
KHYW - Conway-Horry Cty, South Carolina, USA
Distance from station: SW 22mi, 35km
Updated: 08/19/2017 6:55am
Mist, Clear
Mist, Clear
 Wind from SSW
Wind: SSW 3 mph , 6 km/h
Temperature: 77°F , 25°C
Dew Point: 77°F , 25°C
Humidity: 100%
Barometer: 29.94 inHg , 1013.9 hPa
Summary: Mist
Clouds: Clear
Visibility: 5 miles , 8 km
2017/08/19 10:55 KHYW 191055Z AUTO 21003KT 5SM BR CLR 25/25 A2994 RMK AO2
KMAO - Marion, South Carolina, USA
Distance from station: WNW 28mi, 45km
Updated: 08/19/2017 6:55am
Clear
Clear
 Wind from SSW
Wind: SSW 3 mph , 6 km/h
Temperature: 77°F , 25°C
Dew Point: 75°F , 24°C
Humidity: 94%
Barometer: 29.93 inHg , 1013.5 hPa
Clouds: Clear
Visibility: 7 miles , 11 km
2017/08/19 10:55 KMAO 191055Z AUTO 20003KT 7SM CLR 25/24 A2993 RMK AO2
 
KMYR - Myrtle Beach, South Carolina, USA
Distance from station: S 28mi, 45km
Updated: 08/19/2017 6:45am
Few Clouds
Few Clouds
 Wind from SW
Wind: SW 6 mph , 9 km/h
Temperature: 81°F , 27°C
Heat Index: 87°F , 31°C
Dew Point: 75°F , 24°C
Humidity: 84%
Barometer: 29.94 inHg , 1013.9 hPa
Clouds: Few Clouds
Visibility: 10 miles , 16 km
Cloud details: Few Clouds 7000 ft
2017/08/19 10:45 KMYR 191045Z 23005KT 10SM FEW070 27/24 A2994
KLBT - Lumberton, North Carolina, USA
Distance from station: NNW 39mi, 62km
Updated: 08/19/2017 6:54am
Mist, Clear
Mist, Clear
 Wind from calm
Wind: Calm
Temperature: 75°F , 24°C
Dew Point: 75°F , 24°C
Humidity: 100%
Barometer: 29.92 inHg , 1013.2 hPa
Summary: Mist
Clouds: Clear
Visibility: 6 miles , 10 km
2017/08/19 10:54 KLBT 191054Z AUTO 00000KT 6SM BR CLR 24/24 A2992 RMK AO2 SLP129 T02440244
 
KSUT - Southport, North Carolina, USA
Distance from station: E 46mi, 74km
Updated: 08/19/2017 6:55am
Mostly cloudy
Mostly cloudy
 Wind from SW
Wind: SW 9 mph , 15 km/h
Temperature: 82°F , 28°C
Heat Index: 95°F , 35°C
Dew Point: 82°F , 28°C
Humidity: 100%
Barometer: 29.93 inHg , 1013.5 hPa
Clouds: Mostly cloudy
Visibility: 10 miles , 16 km
Cloud details: Mostly cloudy 1200 ft
Mostly cloudy 1900 ft
2017/08/19 10:55 KSUT 191055Z AUTO 23008KT 10SM BKN012 BKN019 28/28 A2993 RMK AO2 T02830275
KFLO - Florence, South Carolina, USA
Distance from station: W 50mi, 81km
Updated: 08/19/2017 6:53am
Few Clouds
Few Clouds
 Wind from SW
Wind: SW 3 mph , 6 km/h
Temperature: 77°F , 25°C
Dew Point: 77°F , 25°C
Humidity: 100%
Barometer: 29.93 inHg , 1013.5 hPa
Clouds: Few Clouds
Visibility: 9 miles , 14 km
Cloud details: Few Clouds 8000 ft
2017/08/19 10:53 KFLO 191053Z 22003KT 9SM FEW080 25/25 A2993 RMK AO2 SLP132 T02500250